sensor_id;sensor_type;location;lat;lon;timestamp;P1;durP1;ratioP1;P2;durP2;ratioP2
74375;SDS011;62812;55.188;61.302;2023-10-08T00:02:23;18.27;;;8.07;;
74375;SDS011;62812;55.188;61.302;2023-10-08T00:04:51;14.95;;;7.35;;
74375;SDS011;62812;55.188;61.302;2023-10-08T00:07:18;15.23;;;7.68;;
74375;SDS011;62812;55.188;61.302;2023-10-08T00:09:50;16.48;;;8.50;;
74375;SDS011;62812;55.188;61.302;2023-10-08T00:12:18;19.08;;;8.52;;
74375;SDS011;62812;55.188;61.302;2023-10-08T00:14:46;19.58;;;9.93;;
74375;SDS011;62812;55.188;61.302;2023-10-08T00:17:19;15.95;;;8.25;;
74375;SDS011;62812;55.188;61.302;2023-10-08T00:19:47;18.65;;;8.45;;
74375;SDS011;62812;55.188;61.302;2023-10-08T00:22:18;19.05;;;9.25;;
74375;SDS011;62812;55.188;61.302;2023-10-08T00:24:45;20.50;;;9.18;;
74375;SDS011;62812;55.188;61.302;2023-10-08T00:27:12;20.40;;;8.45;;
74375;SDS011;62812;55.188;61.302;2023-10-08T00:29:46;18.80;;;8.40;;
74375;SDS011;62812;55.188;61.302;2023-10-08T00:33:03;17.45;;;8.70;;
74375;SDS011;62812;55.188;61.302;2023-10-08T00:35:39;20.58;;;8.75;;
74375;SDS011;62812;55.188;61.302;2023-10-08T00:38:16;21.17;;;9.75;;
74375;SDS011;62812;55.188;61.302;2023-10-08T00:40:46;18.10;;;8.38;;
74375;SDS011;62812;55.188;61.302;2023-10-08T00:43:31;20.33;;;9.00;;
74375;SDS011;62812;55.188;61.302;2023-10-08T00:45:59;19.92;;;9.13;;
74375;SDS011;62812;55.188;61.302;2023-10-08T00:48:27;18.80;;;9.15;;
74375;SDS011;62812;55.188;61.302;2023-10-08T00:51:02;19.27;;;8.68;;
74375;SDS011;62812;55.188;61.302;2023-10-08T00:53:47;19.42;;;9.10;;
74375;SDS011;62812;55.188;61.302;2023-10-08T00:56:18;18.05;;;8.95;;
74375;SDS011;62812;55.188;61.302;2023-10-08T00:58:45;19.70;;;9.55;;
74375;SDS011;62812;55.188;61.302;2023-10-08T01:01:15;18.55;;;8.80;;
74375;SDS011;62812;55.188;61.302;2023-10-08T01:03:43;16.75;;;8.95;;
74375;SDS011;62812;55.188;61.302;2023-10-08T01:06:10;18.88;;;9.10;;
74375;SDS011;62812;55.188;61.302;2023-10-08T01:08:38;17.55;;;8.70;;
74375;SDS011;62812;55.188;61.302;2023-10-08T01:11:17;17.48;;;8.90;;
74375;SDS011;62812;55.188;61.302;2023-10-08T01:13:45;18.70;;;9.00;;
74375;SDS011;62812;55.188;61.302;2023-10-08T01:16:12;19.02;;;9.07;;
74375;SDS011;62812;55.188;61.302;2023-10-08T01:18:40;16.75;;;8.55;;
74375;SDS011;62812;55.188;61.302;2023-10-08T01:21:10;17.58;;;8.32;;
74375;SDS011;62812;55.188;61.302;2023-10-08T01:23:45;19.30;;;8.57;;
74375;SDS011;62812;55.188;61.302;2023-10-08T01:26:13;19.85;;;8.65;;
74375;SDS011;62812;55.188;61.302;2023-10-08T01:28:48;17.83;;;8.43;;
74375;SDS011;62812;55.188;61.302;2023-10-08T01:31:15;17.05;;;8.70;;
74375;SDS011;62812;55.188;61.302;2023-10-08T01:33:41;17.27;;;8.43;;
74375;SDS011;62812;55.188;61.302;2023-10-08T01:36:22;17.77;;;8.10;;
74375;SDS011;62812;55.188;61.302;2023-10-08T01:38:51;17.63;;;8.23;;
74375;SDS011;62812;55.188;61.302;2023-10-08T01:41:17;18.70;;;8.95;;
74375;SDS011;62812;55.188;61.302;2023-10-08T01:43:44;19.80;;;8.55;;
74375;SDS011;62812;55.188;61.302;2023-10-08T01:46:11;21.55;;;8.75;;
74375;SDS011;62812;55.188;61.302;2023-10-08T01:48:38;18.20;;;8.23;;
74375;SDS011;62812;55.188;61.302;2023-10-08T01:51:05;19.88;;;8.85;;
74375;SDS011;62812;55.188;61.302;2023-10-08T01:53:45;19.85;;;9.50;;
74375;SDS011;62812;55.188;61.302;2023-10-08T01:56:13;20.27;;;9.30;;
74375;SDS011;62812;55.188;61.302;2023-10-08T01:58:39;17.38;;;8.35;;
74375;SDS011;62812;55.188;61.302;2023-10-08T02:01:06;20.17;;;9.23;;
74375;SDS011;62812;55.188;61.302;2023-10-08T02:03:37;20.85;;;9.95;;
74375;SDS011;62812;55.188;61.302;2023-10-08T02:06:04;21.02;;;9.52;;
74375;SDS011;62812;55.188;61.302;2023-10-08T02:08:34;18.95;;;9.40;;
74375;SDS011;62812;55.188;61.302;2023-10-08T02:11:01;21.80;;;9.35;;
74375;SDS011;62812;55.188;61.302;2023-10-08T02:13:29;24.83;;;9.77;;
74375;SDS011;62812;55.188;61.302;2023-10-08T02:16:00;19.05;;;9.27;;
74375;SDS011;62812;55.188;61.302;2023-10-08T02:18:27;21.20;;;9.27;;
74375;SDS011;62812;55.188;61.302;2023-10-08T02:20:55;16.35;;;8.35;;
74375;SDS011;62812;55.188;61.302;2023-10-08T02:23:24;17.75;;;8.88;;
74375;SDS011;62812;55.188;61.302;2023-10-08T02:25:51;21.42;;;9.27;;
74375;SDS011;62812;55.188;61.302;2023-10-08T02:28:25;18.05;;;8.95;;
74375;SDS011;62812;55.188;61.302;2023-10-08T02:30:54;20.15;;;9.38;;
74375;SDS011;62812;55.188;61.302;2023-10-08T02:33:25;17.67;;;9.00;;
74375;SDS011;62812;55.188;61.302;2023-10-08T02:35:52;17.65;;;9.43;;
74375;SDS011;62812;55.188;61.302;2023-10-08T02:38:25;16.75;;;7.97;;
74375;SDS011;62812;55.188;61.302;2023-10-08T02:40:52;16.80;;;8.60;;
74375;SDS011;62812;55.188;61.302;2023-10-08T02:43:25;18.05;;;7.97;;
74375;SDS011;62812;55.188;61.302;2023-10-08T02:46:19;17.98;;;7.97;;
74375;SDS011;62812;55.188;61.302;2023-10-08T02:48:46;15.98;;;7.38;;
74375;SDS011;62812;55.188;61.302;2023-10-08T02:51:12;15.35;;;7.38;;
74375;SDS011;62812;55.188;61.302;2023-10-08T02:53:41;13.98;;;6.75;;
74375;SDS011;62812;55.188;61.302;2023-10-08T02:56:12;14.80;;;6.88;;
74375;SDS011;62812;55.188;61.302;2023-10-08T02:58:45;14.07;;;6.20;;
74375;SDS011;62812;55.188;61.302;2023-10-08T03:01:23;13.27;;;6.82;;
74375;SDS011;62812;55.188;61.302;2023-10-08T03:03:59;12.77;;;5.90;;
74375;SDS011;62812;55.188;61.302;2023-10-08T03:06:32;14.15;;;5.85;;
74375;SDS011;62812;55.188;61.302;2023-10-08T03:09:20;12.95;;;5.57;;
74375;SDS011;62812;55.188;61.302;2023-10-08T03:12:38;13.13;;;5.95;;
74375;SDS011;62812;55.188;61.302;2023-10-08T03:15:06;14.35;;;5.97;;
74375;SDS011;62812;55.188;61.302;2023-10-08T03:17:58;11.48;;;5.55;;
74375;SDS011;62812;55.188;61.302;2023-10-08T03:21:00;12.30;;;6.00;;
74375;SDS011;62812;55.188;61.302;2023-10-08T03:23:54;13.65;;;6.28;;
74375;SDS011;62812;55.188;61.302;2023-10-08T03:26:24;12.45;;;5.55;;
74375;SDS011;62812;55.188;61.302;2023-10-08T03:28:56;13.55;;;5.78;;
74375;SDS011;62812;55.188;61.302;2023-10-08T03:31:27;10.38;;;5.07;;
74375;SDS011;62812;55.188;61.302;2023-10-08T03:34:19;11.75;;;5.68;;
74375;SDS011;62812;55.188;61.302;2023-10-08T03:36:46;13.32;;;5.68;;
74375;SDS011;62812;55.188;61.302;2023-10-08T03:39:15;12.82;;;5.22;;
74375;SDS011;62812;55.188;61.302;2023-10-08T03:44:25;9.18;;;4.40;;
74375;SDS011;62812;55.188;61.302;2023-10-08T03:46:55;11.68;;;5.47;;
74375;SDS011;62812;55.188;61.302;2023-10-08T03:49:24;10.40;;;5.00;;
74375;SDS011;62812;55.188;61.302;2023-10-08T03:51:51;9.40;;;4.65;;
74375;SDS011;62812;55.188;61.302;2023-10-08T03:54:18;11.77;;;5.15;;
74375;SDS011;62812;55.188;61.302;2023-10-08T03:56:45;10.07;;;4.90;;
74375;SDS011;62812;55.188;61.302;2023-10-08T03:59:13;9.93;;;4.93;;
74375;SDS011;62812;55.188;61.302;2023-10-08T04:01:40;9.25;;;4.25;;
74375;SDS011;62812;55.188;61.302;2023-10-08T04:04:11;10.05;;;4.28;;
74375;SDS011;62812;55.188;61.302;2023-10-08T04:06:43;7.35;;;3.40;;
74375;SDS011;62812;55.188;61.302;2023-10-08T04:09:17;8.20;;;3.15;;
74375;SDS011;62812;55.188;61.302;2023-10-08T04:11:59;10.65;;;3.38;;
74375;SDS011;62812;55.188;61.302;2023-10-08T04:14:34;8.07;;;3.03;;
74375;SDS011;62812;55.188;61.302;2023-10-08T04:17:02;7.80;;;3.00;;
74375;SDS011;62812;55.188;61.302;2023-10-08T04:19:29;13.52;;;2.90;;
74375;SDS011;62812;55.188;61.302;2023-10-08T04:21:57;10.02;;;2.92;;
74375;SDS011;62812;55.188;61.302;2023-10-08T04:24:26;7.85;;;3.05;;
74375;SDS011;62812;55.188;61.302;2023-10-08T04:27:03;7.35;;;2.83;;
74375;SDS011;62812;55.188;61.302;2023-10-08T04:29:53;6.38;;;2.60;;
74375;SDS011;62812;55.188;61.302;2023-10-08T04:32:21;8.98;;;3.28;;
74375;SDS011;62812;55.188;61.302;2023-10-08T04:35:08;6.80;;;2.70;;
74375;SDS011;62812;55.188;61.302;2023-10-08T04:37:42;8.73;;;2.53;;
74375;SDS011;62812;55.188;61.302;2023-10-08T04:40:12;6.60;;;2.58;;
74375;SDS011;62812;55.188;61.302;2023-10-08T04:42:42;6.72;;;2.45;;
74375;SDS011;62812;55.188;61.302;2023-10-08T04:45:14;5.88;;;2.50;;
74375;SDS011;62812;55.188;61.302;2023-10-08T04:47:45;7.13;;;2.45;;
74375;SDS011;62812;55.188;61.302;2023-10-08T04:50:15;6.88;;;2.15;;
74375;SDS011;62812;55.188;61.302;2023-10-08T04:55:28;7.18;;;2.42;;
74375;SDS011;62812;55.188;61.302;2023-10-08T04:57:55;8.07;;;2.30;;
74375;SDS011;62812;55.188;61.302;2023-10-08T05:00:23;5.68;;;1.98;;
74375;SDS011;62812;55.188;61.302;2023-10-08T05:03:17;5.55;;;1.90;;
74375;SDS011;62812;55.188;61.302;2023-10-08T05:05:50;4.35;;;1.75;;
74375;SDS011;62812;55.188;61.302;2023-10-08T05:08:28;6.10;;;2.53;;
74375;SDS011;62812;55.188;61.302;2023-10-08T05:10:59;6.32;;;2.08;;
74375;SDS011;62812;55.188;61.302;2023-10-08T05:13:41;6.88;;;2.08;;
74375;SDS011;62812;55.188;61.302;2023-10-08T05:16:31;5.60;;;1.70;;
74375;SDS011;62812;55.188;61.302;2023-10-08T05:19:15;4.82;;;1.70;;
74375;SDS011;62812;55.188;61.302;2023-10-08T05:22:04;4.50;;;1.55;;
74375;SDS011;62812;55.188;61.302;2023-10-08T05:24:51;5.00;;;1.42;;
74375;SDS011;62812;55.188;61.302;2023-10-08T05:27:37;6.53;;;2.30;;
74375;SDS011;62812;55.188;61.302;2023-10-08T05:30:25;7.75;;;1.10;;
74375;SDS011;62812;55.188;61.302;2023-10-08T05:33:10;4.93;;;1.30;;
74375;SDS011;62812;55.188;61.302;2023-10-08T05:35:44;4.00;;;1.17;;
74375;SDS011;62812;55.188;61.302;2023-10-08T05:38:12;3.08;;;1.08;;
74375;SDS011;62812;55.188;61.302;2023-10-08T05:40:50;3.92;;;1.02;;
74375;SDS011;62812;55.188;61.302;2023-10-08T05:43:21;4.95;;;1.30;;
74375;SDS011;62812;55.188;61.302;2023-10-08T05:50:25;5.20;;;1.30;;
74375;SDS011;62812;55.188;61.302;2023-10-08T05:52:51;4.47;;;1.50;;
74375;SDS011;62812;55.188;61.302;2023-10-08T05:55:24;4.00;;;1.40;;
74375;SDS011;62812;55.188;61.302;2023-10-08T05:57:53;4.07;;;1.20;;
74375;SDS011;62812;55.188;61.302;2023-10-08T06:00:39;4.45;;;1.30;;
74375;SDS011;62812;55.188;61.302;2023-10-08T06:03:15;3.45;;;1.20;;
74375;SDS011;62812;55.188;61.302;2023-10-08T06:06:01;4.03;;;1.00;;
74375;SDS011;62812;55.188;61.302;2023-10-08T06:08:42;4.00;;;1.23;;
74375;SDS011;62812;55.188;61.302;2023-10-08T06:11:18;3.92;;;1.30;;
74375;SDS011;62812;55.188;61.302;2023-10-08T06:14:05;4.00;;;1.20;;
74375;SDS011;62812;55.188;61.302;2023-10-08T06:17:05;8.10;;;1.63;;
74375;SDS011;62812;55.188;61.302;2023-10-08T06:20:02;5.93;;;1.00;;
74375;SDS011;62812;55.188;61.302;2023-10-08T06:22:37;8.18;;;2.17;;
74375;SDS011;62812;55.188;61.302;2023-10-08T06:25:08;5.68;;;1.40;;
74375;SDS011;62812;55.188;61.302;2023-10-08T06:27:49;9.27;;;1.77;;
74375;SDS011;62812;55.188;61.302;2023-10-08T06:30:30;8.98;;;2.95;;
74375;SDS011;62812;55.188;61.302;2023-10-08T06:33:00;4.68;;;1.50;;
74375;SDS011;62812;55.188;61.302;2023-10-08T06:35:30;3.83;;;1.30;;
74375;SDS011;62812;55.188;61.302;2023-10-08T06:38:16;6.07;;;1.40;;
74375;SDS011;62812;55.188;61.302;2023-10-08T06:40:53;3.75;;;1.50;;
74375;SDS011;62812;55.188;61.302;2023-10-08T06:43:30;4.88;;;1.35;;
74375;SDS011;62812;55.188;61.302;2023-10-08T06:50:25;2.83;;;1.20;;
74375;SDS011;62812;55.188;61.302;2023-10-08T06:52:51;5.28;;;1.50;;
74375;SDS011;62812;55.188;61.302;2023-10-08T06:55:20;3.20;;;1.30;;
74375;SDS011;62812;55.188;61.302;2023-10-08T06:57:50;7.10;;;1.30;;
74375;SDS011;62812;55.188;61.302;2023-10-08T07:00:17;6.85;;;1.27;;
74375;SDS011;62812;55.188;61.302;2023-10-08T07:03:08;4.03;;;1.40;;
74375;SDS011;62812;55.188;61.302;2023-10-08T07:05:45;6.80;;;3.15;;
74375;SDS011;62812;55.188;61.302;2023-10-08T07:08:26;3.58;;;1.30;;
74375;SDS011;62812;55.188;61.302;2023-10-08T07:10:59;6.63;;;1.70;;
74375;SDS011;62812;55.188;61.302;2023-10-08T07:13:37;5.28;;;1.80;;
74375;SDS011;62812;55.188;61.302;2023-10-08T07:16:06;6.00;;;1.50;;
74375;SDS011;62812;55.188;61.302;2023-10-08T07:18:40;4.97;;;1.45;;
74375;SDS011;62812;55.188;61.302;2023-10-08T07:21:16;6.15;;;1.60;;
74375;SDS011;62812;55.188;61.302;2023-10-08T07:23:54;4.65;;;1.58;;
74375;SDS011;62812;55.188;61.302;2023-10-08T07:26:25;4.85;;;1.58;;
74375;SDS011;62812;55.188;61.302;2023-10-08T07:31:35;5.85;;;1.58;;
74375;SDS011;62812;55.188;61.302;2023-10-08T07:37:32;5.13;;;2.05;;
74375;SDS011;62812;55.188;61.302;2023-10-08T07:39:59;5.75;;;1.80;;
74375;SDS011;62812;55.188;61.302;2023-10-08T07:42:25;4.90;;;1.77;;
74375;SDS011;62812;55.188;61.302;2023-10-08T07:44:52;5.50;;;1.77;;
74375;SDS011;62812;55.188;61.302;2023-10-08T07:47:20;7.30;;;2.03;;
74375;SDS011;62812;55.188;61.302;2023-10-08T07:49:47;7.63;;;1.88;;
74375;SDS011;62812;55.188;61.302;2023-10-08T07:52:14;4.95;;;1.80;;
74375;SDS011;62812;55.188;61.302;2023-10-08T07:54:43;7.20;;;2.20;;
74375;SDS011;62812;55.188;61.302;2023-10-08T07:57:10;6.20;;;2.03;;
74375;SDS011;62812;55.188;61.302;2023-10-08T07:59:48;6.97;;;2.05;;
74375;SDS011;62812;55.188;61.302;2023-10-08T08:02:27;10.05;;;2.30;;
74375;SDS011;62812;55.188;61.302;2023-10-08T08:04:55;6.13;;;2.28;;
74375;SDS011;62812;55.188;61.302;2023-10-08T08:07:22;5.82;;;2.00;;
74375;SDS011;62812;55.188;61.302;2023-10-08T08:09:53;5.70;;;2.13;;
74375;SDS011;62812;55.188;61.302;2023-10-08T08:12:27;5.47;;;2.58;;
74375;SDS011;62812;55.188;61.302;2023-10-08T08:14:54;6.85;;;2.30;;
74375;SDS011;62812;55.188;61.302;2023-10-08T08:17:21;5.25;;;2.25;;
74375;SDS011;62812;55.188;61.302;2023-10-08T08:19:50;4.95;;;2.28;;
74375;SDS011;62812;55.188;61.302;2023-10-08T08:22:35;4.97;;;2.33;;
74375;SDS011;62812;55.188;61.302;2023-10-08T08:25:10;6.22;;;2.25;;
74375;SDS011;62812;55.188;61.302;2023-10-08T08:27:52;4.90;;;2.45;;
74375;SDS011;62812;55.188;61.302;2023-10-08T08:30:22;5.63;;;2.60;;
74375;SDS011;62812;55.188;61.302;2023-10-08T08:32:52;5.75;;;2.85;;
74375;SDS011;62812;55.188;61.302;2023-10-08T08:35:20;9.35;;;2.83;;
74375;SDS011;62812;55.188;61.302;2023-10-08T08:37:46;5.97;;;2.83;;
74375;SDS011;62812;55.188;61.302;2023-10-08T08:40:17;5.43;;;2.50;;
74375;SDS011;62812;55.188;61.302;2023-10-08T08:42:46;5.53;;;2.95;;
74375;SDS011;62812;55.188;61.302;2023-10-08T08:45:15;7.20;;;2.80;;
74375;SDS011;62812;55.188;61.302;2023-10-08T08:47:49;7.25;;;2.85;;
74375;SDS011;62812;55.188;61.302;2023-10-08T08:50:21;6.80;;;2.35;;
74375;SDS011;62812;55.188;61.302;2023-10-08T08:52:48;6.30;;;2.10;;
74375;SDS011;62812;55.188;61.302;2023-10-08T08:55:14;5.25;;;2.38;;
74375;SDS011;62812;55.188;61.302;2023-10-08T08:57:44;5.13;;;2.03;;
74375;SDS011;62812;55.188;61.302;2023-10-08T09:00:21;4.60;;;1.45;;
74375;SDS011;62812;55.188;61.302;2023-10-08T09:05:57;5.25;;;1.58;;
74375;SDS011;62812;55.188;61.302;2023-10-08T09:08:27;3.55;;;1.30;;
74375;SDS011;62812;55.188;61.302;2023-10-08T09:11:00;3.10;;;1.20;;
74375;SDS011;62812;55.188;61.302;2023-10-08T09:13:35;2.47;;;0.90;;
74375;SDS011;62812;55.188;61.302;2023-10-08T09:16:11;3.45;;;1.00;;
74375;SDS011;62812;55.188;61.302;2023-10-08T09:18:41;3.50;;;1.20;;
74375;SDS011;62812;55.188;61.302;2023-10-08T09:21:10;3.35;;;1.30;;
74375;SDS011;62812;55.188;61.302;2023-10-08T09:23:41;3.33;;;1.08;;
74375;SDS011;62812;55.188;61.302;2023-10-08T09:26:10;2.33;;;0.98;;
74375;SDS011;62812;55.188;61.302;2023-10-08T09:28:40;4.43;;;1.40;;
74375;SDS011;62812;55.188;61.302;2023-10-08T09:31:15;4.18;;;1.20;;
74375;SDS011;62812;55.188;61.302;2023-10-08T09:33:53;5.60;;;1.60;;
74375;SDS011;62812;55.188;61.302;2023-10-08T09:36:21;2.95;;;1.08;;
74375;SDS011;62812;55.188;61.302;2023-10-08T09:38:57;4.55;;;1.25;;
74375;SDS011;62812;55.188;61.302;2023-10-08T09:41:33;5.55;;;1.58;;
74375;SDS011;62812;55.188;61.302;2023-10-08T09:44:04;3.90;;;1.40;;
74375;SDS011;62812;55.188;61.302;2023-10-08T09:47:06;4.22;;;1.48;;
74375;SDS011;62812;55.188;61.302;2023-10-08T09:49:38;3.60;;;1.40;;
74375;SDS011;62812;55.188;61.302;2023-10-08T09:52:08;4.93;;;1.40;;
74375;SDS011;62812;55.188;61.302;2023-10-08T09:54:37;4.32;;;1.50;;
74375;SDS011;62812;55.188;61.302;2023-10-08T09:57:10;3.75;;;1.17;;
74375;SDS011;62812;55.188;61.302;2023-10-08T09:59:39;3.60;;;1.00;;
74375;SDS011;62812;55.188;61.302;2023-10-08T10:02:07;4.55;;;1.08;;
74375;SDS011;62812;55.188;61.302;2023-10-08T10:04:36;3.28;;;1.20;;
74375;SDS011;62812;55.188;61.302;2023-10-08T10:07:10;2.53;;;1.00;;
74375;SDS011;62812;55.188;61.302;2023-10-08T10:09:45;3.88;;;1.25;;
74375;SDS011;62812;55.188;61.302;2023-10-08T10:12:20;3.05;;;1.20;;
74375;SDS011;62812;55.188;61.302;2023-10-08T10:14:53;3.25;;;1.10;;
74375;SDS011;62812;55.188;61.302;2023-10-08T10:17:34;2.95;;;1.17;;
74375;SDS011;62812;55.188;61.302;2023-10-08T10:20:08;3.50;;;1.20;;
74375;SDS011;62812;55.188;61.302;2023-10-08T10:22:39;3.75;;;1.42;;
74375;SDS011;62812;55.188;61.302;2023-10-08T10:25:15;4.15;;;1.58;;
74375;SDS011;62812;55.188;61.302;2023-10-08T10:30:53;4.65;;;1.65;;
74375;SDS011;62812;55.188;61.302;2023-10-08T10:33:47;3.97;;;1.50;;
74375;SDS011;62812;55.188;61.302;2023-10-08T10:36:15;3.92;;;1.30;;
74375;SDS011;62812;55.188;61.302;2023-10-08T10:38:43;13.95;;;6.80;;
74375;SDS011;62812;55.188;61.302;2023-10-08T10:41:11;5.43;;;2.30;;
74375;SDS011;62812;55.188;61.302;2023-10-08T10:43:38;3.25;;;1.50;;
74375;SDS011;62812;55.188;61.302;2023-10-08T10:46:08;3.85;;;1.40;;
74375;SDS011;62812;55.188;61.302;2023-10-08T10:48:53;3.25;;;1.23;;
74375;SDS011;62812;55.188;61.302;2023-10-08T10:51:38;3.75;;;1.33;;
74375;SDS011;62812;55.188;61.302;2023-10-08T10:54:07;4.10;;;1.00;;
74375;SDS011;62812;55.188;61.302;2023-10-08T10:56:36;4.45;;;1.00;;
74375;SDS011;62812;55.188;61.302;2023-10-08T10:59:11;3.53;;;1.33;;
74375;SDS011;62812;55.188;61.302;2023-10-08T11:01:54;3.83;;;0.80;;
74375;SDS011;62812;55.188;61.302;2023-10-08T11:04:44;1.98;;;0.70;;
74375;SDS011;62812;55.188;61.302;2023-10-08T11:07:15;5.47;;;0.82;;
74375;SDS011;62812;55.188;61.302;2023-10-08T11:09:46;1.70;;;0.40;;
74375;SDS011;62812;55.188;61.302;2023-10-08T11:12:14;2.05;;;0.57;;
74375;SDS011;62812;55.188;61.302;2023-10-08T11:14:46;1.55;;;0.57;;
74375;SDS011;62812;55.188;61.302;2023-10-08T11:17:23;1.67;;;0.50;;
74375;SDS011;62812;55.188;61.302;2023-10-08T11:19:55;1.95;;;0.60;;
74375;SDS011;62812;55.188;61.302;2023-10-08T11:22:22;2.10;;;0.60;;
74375;SDS011;62812;55.188;61.302;2023-10-08T11:25:19;2.38;;;0.70;;
74375;SDS011;62812;55.188;61.302;2023-10-08T11:27:51;2.60;;;0.70;;
74375;SDS011;62812;55.188;61.302;2023-10-08T11:30:25;4.80;;;0.90;;
74375;SDS011;62812;55.188;61.302;2023-10-08T11:32:58;1.92;;;0.50;;
74375;SDS011;62812;55.188;61.302;2023-10-08T11:35:25;3.28;;;0.90;;
74375;SDS011;62812;55.188;61.302;2023-10-08T11:37:57;2.85;;;0.80;;
74375;SDS011;62812;55.188;61.302;2023-10-08T11:40:27;7.15;;;1.00;;
74375;SDS011;62812;55.188;61.302;2023-10-08T11:43:17;6.38;;;1.00;;
74375;SDS011;62812;55.188;61.302;2023-10-08T11:45:44;5.57;;;1.20;;
74375;SDS011;62812;55.188;61.302;2023-10-08T11:48:20;3.17;;;0.93;;
74375;SDS011;62812;55.188;61.302;2023-10-08T11:51:49;3.30;;;0.80;;
74375;SDS011;62812;55.188;61.302;2023-10-08T11:54:25;4.95;;;1.40;;
74375;SDS011;62812;55.188;61.302;2023-10-08T12:02:16;2.53;;;0.80;;
74375;SDS011;62812;55.188;61.302;2023-10-08T12:07:27;3.85;;;0.60;;
74375;SDS011;62812;55.188;61.302;2023-10-08T12:09:54;3.15;;;0.80;;
74375;SDS011;62812;55.188;61.302;2023-10-08T12:12:21;3.47;;;1.00;;
74375;SDS011;62812;55.188;61.302;2023-10-08T12:18:11;2.28;;;0.68;;
74375;SDS011;62812;55.188;61.302;2023-10-08T12:21:02;3.20;;;0.90;;
74375;SDS011;62812;55.188;61.302;2023-10-08T12:23:41;2.88;;;0.60;;
74375;SDS011;62812;55.188;61.302;2023-10-08T12:26:22;2.80;;;0.77;;
74375;SDS011;62812;55.188;61.302;2023-10-08T12:28:48;3.10;;;0.85;;
74375;SDS011;62812;55.188;61.302;2023-10-08T12:31:16;3.28;;;0.98;;
74375;SDS011;62812;55.188;61.302;2023-10-08T12:33:48;2.10;;;0.80;;
74375;SDS011;62812;55.188;61.302;2023-10-08T12:36:26;2.88;;;0.90;;
74375;SDS011;62812;55.188;61.302;2023-10-08T12:39:05;2.10;;;0.73;;
74375;SDS011;62812;55.188;61.302;2023-10-08T12:41:40;4.20;;;0.90;;
74375;SDS011;62812;55.188;61.302;2023-10-08T12:44:10;2.90;;;0.93;;
74375;SDS011;62812;55.188;61.302;2023-10-08T12:46:55;3.00;;;1.05;;
74375;SDS011;62812;55.188;61.302;2023-10-08T12:49:25;4.38;;;1.00;;
74375;SDS011;62812;55.188;61.302;2023-10-08T12:51:55;5.50;;;0.90;;
74375;SDS011;62812;55.188;61.302;2023-10-08T12:54:24;3.25;;;1.05;;
74375;SDS011;62812;55.188;61.302;2023-10-08T12:56:55;3.05;;;0.90;;
74375;SDS011;62812;55.188;61.302;2023-10-08T12:59:24;4.13;;;1.40;;
74375;SDS011;62812;55.188;61.302;2023-10-08T13:02:05;2.85;;;0.80;;
74375;SDS011;62812;55.188;61.302;2023-10-08T13:04:36;2.03;;;0.73;;
74375;SDS011;62812;55.188;61.302;2023-10-08T13:07:08;3.13;;;0.80;;
74375;SDS011;62812;55.188;61.302;2023-10-08T13:09:39;3.13;;;0.93;;
74375;SDS011;62812;55.188;61.302;2023-10-08T13:12:05;4.80;;;0.98;;
74375;SDS011;62812;55.188;61.302;2023-10-08T13:14:34;2.17;;;0.70;;
74375;SDS011;62812;55.188;61.302;2023-10-08T13:17:02;3.58;;;0.90;;
74375;SDS011;62812;55.188;61.302;2023-10-08T13:19:30;4.85;;;1.10;;
74375;SDS011;62812;55.188;61.302;2023-10-08T13:22:44;2.70;;;1.02;;
74375;SDS011;62812;55.188;61.302;2023-10-08T13:25:16;3.33;;;0.80;;
74375;SDS011;62812;55.188;61.302;2023-10-08T13:30:33;2.97;;;0.80;;
74375;SDS011;62812;55.188;61.302;2023-10-08T13:33:08;3.50;;;0.70;;
74375;SDS011;62812;55.188;61.302;2023-10-08T13:35:57;2.75;;;0.95;;
74375;SDS011;62812;55.188;61.302;2023-10-08T13:38:25;3.00;;;0.85;;
74375;SDS011;62812;55.188;61.302;2023-10-08T13:40:58;3.10;;;1.00;;
74375;SDS011;62812;55.188;61.302;2023-10-08T13:51:06;4.30;;;1.00;;
74375;SDS011;62812;55.188;61.302;2023-10-08T13:53:16;3.78;;;1.20;;
74375;SDS011;62812;55.188;61.302;2023-10-08T13:55:46;3.97;;;0.90;;
74375;SDS011;62812;55.188;61.302;2023-10-08T13:58:29;4.95;;;1.55;;
74375;SDS011;62812;55.188;61.302;2023-10-08T14:01:10;3.28;;;1.20;;
74375;SDS011;62812;55.188;61.302;2023-10-08T14:04:10;2.83;;;1.00;;
74375;SDS011;62812;55.188;61.302;2023-10-08T14:07:59;3.05;;;1.30;;
74375;SDS011;62812;55.188;61.302;2023-10-08T14:14:07;3.63;;;1.20;;
74375;SDS011;62812;55.188;61.302;2023-10-08T14:16:37;4.70;;;1.30;;
74375;SDS011;62812;55.188;61.302;2023-10-08T14:19:09;5.72;;;1.40;;
74375;SDS011;62812;55.188;61.302;2023-10-08T14:21:39;4.78;;;1.30;;
74375;SDS011;62812;55.188;61.302;2023-10-08T14:24:19;3.40;;;1.08;;
74375;SDS011;62812;55.188;61.302;2023-10-08T14:26:48;3.33;;;1.05;;
74375;SDS011;62812;55.188;61.302;2023-10-08T14:29:22;6.25;;;1.55;;
74375;SDS011;62812;55.188;61.302;2023-10-08T14:31:52;5.82;;;1.58;;
74375;SDS011;62812;55.188;61.302;2023-10-08T14:34:22;5.20;;;1.25;;
74375;SDS011;62812;55.188;61.302;2023-10-08T14:37:07;3.60;;;1.15;;
74375;SDS011;62812;55.188;61.302;2023-10-08T14:46:22;4.53;;;1.52;;
74375;SDS011;62812;55.188;61.302;2023-10-08T14:48:53;3.45;;;1.10;;
74375;SDS011;62812;55.188;61.302;2023-10-08T14:51:21;6.53;;;1.48;;
74375;SDS011;62812;55.188;61.302;2023-10-08T14:53:50;3.15;;;1.10;;
74375;SDS011;62812;55.188;61.302;2023-10-08T14:56:18;2.92;;;1.17;;
74375;SDS011;62812;55.188;61.302;2023-10-08T14:58:47;4.72;;;1.20;;
74375;SDS011;62812;55.188;61.302;2023-10-08T15:01:14;4.57;;;1.38;;
74375;SDS011;62812;55.188;61.302;2023-10-08T15:03:43;4.22;;;1.30;;
74375;SDS011;62812;55.188;61.302;2023-10-08T15:06:14;3.70;;;1.40;;
74375;SDS011;62812;55.188;61.302;2023-10-08T15:08:43;4.68;;;1.42;;
74375;SDS011;62812;55.188;61.302;2023-10-08T15:11:16;3.80;;;1.38;;
74375;SDS011;62812;55.188;61.302;2023-10-08T15:14:25;3.80;;;1.30;;
74375;SDS011;62812;55.188;61.302;2023-10-08T15:16:52;3.60;;;1.35;;
74375;SDS011;62812;55.188;61.302;2023-10-08T15:19:19;5.05;;;1.10;;
74375;SDS011;62812;55.188;61.302;2023-10-08T15:21:47;3.95;;;1.42;;
74375;SDS011;62812;55.188;61.302;2023-10-08T15:24:17;3.97;;;1.40;;
74375;SDS011;62812;55.188;61.302;2023-10-08T15:26:47;6.15;;;1.20;;
74375;SDS011;62812;55.188;61.302;2023-10-08T15:29:14;3.65;;;1.10;;
74375;SDS011;62812;55.188;61.302;2023-10-08T15:31:44;3.65;;;1.30;;
74375;SDS011;62812;55.188;61.302;2023-10-08T15:34:11;4.00;;;1.30;;
74375;SDS011;62812;55.188;61.302;2023-10-08T15:36:38;5.68;;;1.40;;
74375;SDS011;62812;55.188;61.302;2023-10-08T15:39:05;2.80;;;1.10;;
74375;SDS011;62812;55.188;61.302;2023-10-08T15:44:02;3.92;;;1.48;;
74375;SDS011;62812;55.188;61.302;2023-10-08T15:46:29;3.85;;;1.15;;
74375;SDS011;62812;55.188;61.302;2023-10-08T15:48:57;3.45;;;1.30;;
74375;SDS011;62812;55.188;61.302;2023-10-08T15:51:23;4.20;;;1.10;;
74375;SDS011;62812;55.188;61.302;2023-10-08T15:53:53;4.75;;;1.20;;
74375;SDS011;62812;55.188;61.302;2023-10-08T15:56:20;6.38;;;1.83;;
74375;SDS011;62812;55.188;61.302;2023-10-08T15:58:47;3.53;;;1.20;;
74375;SDS011;62812;55.188;61.302;2023-10-08T16:01:13;4.28;;;1.27;;
74375;SDS011;62812;55.188;61.302;2023-10-08T16:03:39;5.13;;;1.50;;
74375;SDS011;62812;55.188;61.302;2023-10-08T16:06:08;5.32;;;1.70;;
74375;SDS011;62812;55.188;61.302;2023-10-08T16:08:34;5.32;;;1.70;;
74375;SDS011;62812;55.188;61.302;2023-10-08T16:11:01;4.10;;;1.10;;